Portada
METAR-TAF:

METAR-TAF

Aeroports :

Al-Kuwait, Kuwait

latitud: 29-13N, longitud: 047-59E, altitud: 55 m

Observació

L'informe es va fer fa 1 hora i 0 minuts, a les 08:00 UTC
Vent 8 kt del Est/Sud-Est
Temperatura 37°C
Humitat 54%
Pressió 1004 hPa
Visibilitat 10 km o més
sense núvols per sota de 1500 mi sense presència de cumulonimbus.

METAR: OKBK 240800Z 12008KT CAVOK 37/26 Q1004 NOSIG

Hora: 12:00 (09:00 UTC)

Pronòstic

L'informe es va fer fa 4 hores i 15 minuts, a les 04:45 UTC
Pronòstic vàlid del 24 a les 06 UTC al 25 a les 12 UTC
Vent 3 kt amb direcció variable
Visibilitat: 7000 m
Cel clar
Evolucionant progressivament
l' 24 a les 08 UTC al 24 a les 10 UTC
Vent 10 kt del Sud-Est

TAF: OKBK 240445Z 2406/2512 VRB03KT 7000 SKC BECMG 2408/2410 14010KT

Observacions i pronòstics meteorològics de més de 4000 aeroports (METAR i TAF).

Les estacions disponibles són els punts grocs i vermells al mapa.

Posi el ratolí al punt desitjat per veure el nom de l'estació.

Feu clic per veure les observacions i els pronòstics meteorològics.

Per canviar el mapa: feu clic els botons verds amb una creu de color negre per apropar; al botó verd amb un guió per allunyar la imatge; o en les fletxes verdes per a mapes adjacents.


METAR-TAF: